Metar z połowy godziny Komunikat METAR ze strony awiacja.imgw.pl Metar G30 EPRZ METAR EPRZ 200230Z 00000KT CAVOK 16/16 Q1018 =